Time;durP1;ratioP1;P1;durP2;ratioP2;P2;SDS_P1;SDS_P2;PMS_P1;PMS_P2;Temp;Humidity;BMP_temperature;BMP_pressure;BME280_temperature;BME280_humidity;BME280_pressure;Samples;Min_cycle;Max_cycle;Signal;HPM_P1;HPM_P2
2022/04/27 00:01:51;;;;;;;12.07;6.90;;;9.20;99.90;;;;;;5033204;28;20269;-90
2022/04/27 00:04:17;;;;;;;7.13;6.07;;;9.30;99.90;;;;;;5033136;28;20184;-89
2022/04/27 00:06:42;;;;;;;8.33;6.90;;;9.30;99.90;;;;;;5031894;28;20554;-89
2022/04/27 00:09:08;;;;;;;7.53;6.13;;;9.20;99.90;;;;;;5033123;28;20190;-89
2022/04/27 00:11:34;;;;;;;9.73;6.53;;;9.20;99.90;;;;;;5032933;28;20739;-89
2022/04/27 00:14:00;;;;;;;9.43;6.50;;;9.10;99.90;;;;;;5032972;28;20458;-89
2022/04/27 00:16:27;;;;;;;10.20;6.67;;;9.10;99.90;;;;;;5032880;28;20176;-89
2022/04/27 00:18:53;;;;;;;9.30;7.20;;;9.10;99.90;;;;;;5032890;28;20420;-89
2022/04/27 00:21:18;;;;;;;7.27;6.13;;;9.10;99.90;;;;;;5032841;28;20420;-89
2022/04/27 00:23:44;;;;;;;8.50;6.50;;;9.10;99.90;;;;;;5032647;28;20807;-89
2022/04/27 00:26:10;;;;;;;8.30;7.00;;;9.00;99.90;;;;;;5032730;28;20208;-89
2022/04/27 00:28:36;;;;;;;10.77;7.50;;;9.00;99.90;;;;;;5032641;28;20188;-89
2022/04/27 00:31:01;;;;;;;8.30;6.80;;;9.00;99.90;;;;;;5032729;28;20204;-89
2022/04/27 00:33:27;;;;;;;8.30;6.13;;;8.90;99.90;;;;;;5032436;28;20196;-89
2022/04/27 00:35:53;;;;;;;9.77;6.97;;;8.80;99.90;;;;;;5032689;28;20172;-89
2022/04/27 00:38:19;;;;;;;8.27;5.53;;;8.80;99.90;;;;;;5032384;28;20419;-89
2022/04/27 00:40:45;;;;;;;11.97;6.10;;;8.70;99.90;;;;;;5032487;28;20180;-89
2022/04/27 00:43:14;;;;;;;10.77;7.03;;;8.70;99.90;;;;;;5032246;28;20439;-89
2022/04/27 00:45:40;;;;;;;15.27;6.80;;;8.70;99.90;;;;;;5032459;28;20220;-89
2022/04/27 00:48:06;;;;;;;9.90;5.90;;;8.70;99.90;;;;;;5032283;28;20457;-89
2022/04/27 00:50:32;;;;;;;10.57;6.60;;;8.70;99.90;;;;;;5032149;28;20445;-89
2022/04/27 00:53:00;;;;;;;10.17;7.00;;;8.70;99.90;;;;;;5032035;28;20450;-89
2022/04/27 00:55:26;;;;;;;10.03;5.50;;;8.70;99.90;;;;;;5032171;28;20430;-90
2022/04/27 00:57:52;;;;;;;10.13;6.57;;;8.80;99.90;;;;;;5032188;28;20821;-89
2022/04/27 01:00:18;;;;;;;7.93;6.30;;;8.90;99.90;;;;;;5031954;28;20428;-89
2022/04/27 01:02:43;;;;;;;8.17;6.40;;;8.90;99.90;;;;;;5032109;28;20500;-89
2022/04/27 01:05:11;;;;;;;8.27;6.07;;;8.90;99.90;;;;;;5031944;28;20453;-89
2022/04/27 01:07:41;;;;;;;8.33;5.93;;;8.90;99.90;;;;;;5031950;28;20184;-89
2022/04/27 01:10:08;;;;;;;9.33;7.03;;;9.00;99.90;;;;;;5048433;28;20931;-89
2022/04/27 01:12:35;;;;;;;10.90;6.53;;;9.00;99.90;;;;;;5031704;28;20482;-89
2022/04/27 01:15:01;;;;;;;7.90;6.00;;;9.00;99.90;;;;;;5031816;28;20427;-89
2022/04/27 01:17:27;;;;;;;10.20;7.30;;;9.00;99.90;;;;;;5031387;28;20473;-89
2022/04/27 01:19:53;;;;;;;12.60;6.43;;;9.00;99.90;;;;;;5032033;28;20418;-89
2022/04/27 01:22:19;;;;;;;10.27;7.20;;;9.10;99.90;;;;;;5031623;28;20208;-89
2022/04/27 01:24:45;;;;;;;8.50;6.20;;;9.10;99.90;;;;;;5031602;28;20201;-89
2022/04/27 01:27:11;;;;;;;8.83;6.20;;;9.10;99.90;;;;;;5031641;28;20427;-89
2022/04/27 01:29:37;;;;;;;9.83;6.63;;;9.00;99.90;;;;;;5031614;28;20188;-89
2022/04/27 01:32:03;;;;;;;9.07;6.20;;;9.00;99.90;;;;;;5031354;28;20477;-89
2022/04/27 01:34:29;;;;;;;10.37;6.20;;;9.00;99.90;;;;;;5031441;28;20506;-88
2022/04/27 01:37:59;;;;;;;9.70;6.23;;;9.00;99.90;;;;;;5031470;28;20510;-89
2022/04/27 01:39:41;;;;;;;9.80;5.93;;;9.00;99.90;;;;;;5032543;28;20671;-89
2022/04/27 01:42:07;;;;;;;12.20;6.70;;;8.90;99.90;;;;;;5031339;28;20534;-89
2022/04/27 01:44:33;;;;;;;7.60;6.40;;;8.90;99.90;;;;;;5031351;28;21054;-90
2022/04/27 01:46:59;;;;;;;10.83;7.70;;;8.90;99.90;;;;;;5031333;28;20184;-89
2022/04/27 01:49:25;;;;;;;11.27;6.80;;;8.90;99.90;;;;;;5031515;28;20266;-89
2022/04/27 01:54:35;;;;;;;9.87;7.10;;;9.10;99.90;;;;;;5032777;28;20402;-89
2022/04/27 01:57:01;;;;;;;11.27;7.13;;;9.10;99.90;;;;;;5031422;28;20934;-89
2022/04/27 01:59:26;;;;;;;10.03;6.83;;;9.10;99.90;;;;;;5031273;28;20177;-89
2022/04/27 02:01:52;;;;;;;10.60;7.00;;;9.20;99.90;;;;;;5031449;28;20184;-89
2022/04/27 02:04:18;;;;;;;10.57;7.43;;;9.20;99.90;;;;;;5032402;28;20218;-88
2022/04/27 02:06:43;;;;;;;11.87;8.23;;;9.10;99.90;;;;;;5032631;28;20249;-89
2022/04/27 02:09:09;;;;;;;13.87;7.63;;;9.10;99.90;;;;;;5032384;28;20673;-88
2022/04/27 02:11:35;;;;;;;10.03;6.77;;;9.10;99.90;;;;;;5032566;28;20216;-89
2022/04/27 02:14:01;;;;;;;11.13;6.87;;;9.00;99.90;;;;;;5032863;28;20204;-88
2022/04/27 02:16:28;;;;;;;14.17;7.07;;;9.00;99.90;;;;;;5032709;28;20180;-88
2022/04/27 02:18:55;;;;;;;10.47;8.10;;;8.90;99.90;;;;;;5033090;28;20419;-88
2022/04/27 02:21:22;;;;;;;9.60;7.07;;;8.90;99.90;;;;;;5032268;28;20963;-88
2022/04/27 02:23:49;;;;;;;7.70;6.20;;;8.90;99.90;;;;;;5034065;28;20482;-88
2022/04/27 02:26:15;;;;;;;9.60;7.03;;;8.80;99.90;;;;;;5032612;28;20786;-88
2022/04/27 02:28:41;;;;;;;7.03;6.07;;;8.70;99.90;;;;;;5032654;28;20526;-89
2022/04/27 02:31:07;;;;;;;9.97;7.07;;;8.60;99.90;;;;;;5035525;28;20490;-88
2022/04/27 02:33:33;;;;;;;11.33;7.40;;;8.60;99.90;;;;;;5036507;28;20210;-88
2022/04/27 02:35:59;;;;;;;9.90;6.37;;;8.60;99.90;;;;;;5035676;28;20931;-88
2022/04/27 02:38:26;;;;;;;11.43;7.87;;;8.60;99.90;;;;;;5036247;28;21008;-87
2022/04/27 02:40:52;;;;;;;11.00;7.60;;;8.60;99.90;;;;;;5035834;28;20195;-89
2022/04/27 02:43:18;;;;;;;8.40;7.47;;;8.60;99.90;;;;;;5035988;28;20445;-88
2022/04/27 02:45:44;;;;;;;12.93;7.87;;;8.50;99.90;;;;;;5035605;28;20450;-88
2022/04/27 02:48:10;;;;;;;9.73;7.40;;;8.50;99.90;;;;;;5035366;28;20187;-88
2022/04/27 02:53:21;;;;;;;9.23;6.70;;;8.30;99.90;;;;;;5036880;28;20585;-88
2022/04/27 02:55:47;;;;;;;14.20;6.90;;;8.20;99.90;;;;;;5035804;28;20458;-89
2022/04/27 02:58:13;;;;;;;9.77;7.47;;;8.10;99.90;;;;;;5035593;28;20183;-89
2022/04/27 03:00:39;;;;;;;15.93;7.30;;;8.10;99.90;;;;;;5035203;28;20603;-88
2022/04/27 03:03:08;;;;;;;9.80;7.03;;;8.00;99.90;;;;;;5035569;28;20231;-88
2022/04/27 03:05:34;;;;;;;9.30;6.87;;;7.90;99.90;;;;;;5035315;28;20461;-88
2022/04/27 03:07:59;;;;;;;12.20;7.37;;;7.90;99.90;;;;;;5035531;28;20419;-89
2022/04/27 03:10:25;;;;;;;12.00;7.27;;;7.90;99.90;;;;;;5051875;28;20215;-89
2022/04/27 03:12:51;;;;;;;10.60;7.37;;;7.80;99.90;;;;;;5035268;28;20196;-89
2022/04/27 03:15:17;;;;;;;11.43;7.70;;;7.80;99.90;;;;;;5035272;28;20674;-87
2022/04/27 03:17:43;;;;;;;9.97;6.87;;;7.80;99.90;;;;;;5035129;28;20665;-88
2022/04/27 03:20:09;;;;;;;10.70;7.20;;;7.70;99.90;;;;;;5034686;28;20451;-89
2022/04/27 03:22:34;;;;;;;9.70;6.73;;;7.70;99.90;;;;;;5035201;28;20431;-88
2022/04/27 03:25:00;;;;;;;8.07;6.53;;;7.70;99.90;;;;;;5035046;28;20431;-88
2022/04/27 03:27:26;;;;;;;13.40;8.57;;;7.60;99.90;;;;;;5035069;28;20276;-88
2022/04/27 03:29:51;;;;;;;10.90;7.50;;;7.50;99.90;;;;;;5034424;28;20551;-88
2022/04/27 03:32:17;;;;;;;12.23;7.83;;;7.40;99.90;;;;;;5034702;28;20218;-88
2022/04/27 03:34:43;;;;;;;9.73;7.40;;;7.40;99.90;;;;;;5035035;28;20202;-89
2022/04/27 03:37:08;;;;;;;10.73;6.97;;;7.30;99.90;;;;;;5034499;28;20186;-88
2022/04/27 03:39:34;;;;;;;13.83;7.00;;;7.30;99.90;;;;;;5082336;22;20318;-78
2022/04/27 03:42:00;;;;;;;9.10;7.03;;;7.20;99.90;;;;;;5053616;28;20183;-78
2022/04/27 03:44:25;;;;;;;9.60;7.20;;;7.20;99.90;;;;;;5055620;28;20441;-78
2022/04/27 03:46:51;;;;;;;9.97;7.07;;;7.20;99.90;;;;;;5055585;28;20215;-79
2022/04/27 03:49:16;;;;;;;10.60;7.23;;;7.10;99.90;;;;;;5041370;28;20200;-79
2022/04/27 03:51:42;;;;;;;12.00;8.10;;;7.10;99.90;;;;;;5035278;28;20211;-78
2022/04/27 03:54:08;;;;;;;10.20;7.77;;;7.10;99.90;;;;;;5034376;28;20596;-78
2022/04/27 03:56:33;;;;;;;13.60;8.13;;;7.10;99.90;;;;;;5034439;28;20187;-78
2022/04/27 03:58:59;;;;;;;10.63;7.33;;;7.10;99.90;;;;;;5035873;28;20573;-78
2022/04/27 04:01:24;;;;;;;11.27;7.73;;;7.10;99.90;;;;;;5035489;28;20186;-78
2022/04/27 04:03:50;;;;;;;11.23;6.67;;;7.00;99.90;;;;;;5035156;28;20267;-78
2022/04/27 04:06:15;;;;;;;11.40;8.23;;;7.00;99.90;;;;;;5035289;28;20629;-78
2022/04/27 04:08:41;;;;;;;14.90;8.73;;;7.00;99.90;;;;;;5035236;28;20227;-79
2022/04/27 04:11:07;;;;;;;10.90;7.70;;;7.00;99.90;;;;;;5034958;28;20328;-78
2022/04/27 04:13:32;;;;;;;9.80;7.50;;;7.00;99.90;;;;;;5033914;28;20270;-78
2022/04/27 04:15:58;;;;;;;14.37;8.33;;;7.10;99.90;;;;;;5035192;28;20207;-78
2022/04/27 04:18:23;;;;;;;11.60;7.90;;;7.10;99.90;;;;;;5034693;28;20202;-78
2022/04/27 04:20:49;;;;;;;11.60;7.50;;;7.10;99.90;;;;;;5033373;28;20203;-78
2022/04/27 04:23:14;;;;;;;13.30;8.30;;;7.10;99.90;;;;;;5035001;28;20235;-78
2022/04/27 04:28:30;;;;;;;11.20;7.87;;;7.20;99.90;;;;;;5034625;28;20213;-78
2022/04/27 04:30:57;;;;;;;9.57;7.63;;;7.20;99.90;;;;;;5034972;28;20529;-78
2022/04/27 04:33:22;;;;;;;11.03;7.93;;;7.30;99.90;;;;;;5034731;28;20951;-78
2022/04/27 04:35:48;;;;;;;21.03;8.73;;;7.40;99.90;;;;;;5034492;28;20414;-78
2022/04/27 04:38:14;;;;;;;11.27;7.63;;;7.50;99.90;;;;;;5034203;28;20246;-79
2022/04/27 04:40:40;;;;;;;10.97;7.50;;;7.50;99.90;;;;;;5033954;28;20406;-78
2022/04/27 04:43:05;;;;;;;11.00;7.33;;;7.60;99.90;;;;;;5034353;28;20223;-78
2022/04/27 04:45:31;;;;;;;13.67;8.70;;;7.70;99.90;;;;;;5032675;28;20176;-78
2022/04/27 04:47:56;;;;;;;10.03;7.43;;;7.70;99.90;;;;;;5034279;28;20184;-78
2022/04/27 04:50:22;;;;;;;9.67;7.60;;;7.70;99.90;;;;;;5033577;28;20176;-78
2022/04/27 04:52:48;;;;;;;16.03;9.00;;;7.80;99.90;;;;;;5032099;28;20231;-79
2022/04/27 04:55:13;;;;;;;9.60;7.93;;;7.90;99.90;;;;;;5032670;28;20212;-78
2022/04/27 04:57:39;;;;;;;11.20;7.47;;;7.90;99.90;;;;;;5034082;28;20172;-78
2022/04/27 05:00:09;;;;;;;11.27;7.63;;;7.90;99.90;;;;;;5033984;28;20261;-78
2022/04/27 05:02:35;;;;;;;12.10;8.23;;;8.00;99.90;;;;;;5032584;28;20258;-78
2022/04/27 05:05:05;;;;;;;11.40;7.40;;;8.10;99.90;;;;;;5033428;28;20785;-78
2022/04/27 05:07:31;;;;;;;12.70;8.00;;;8.10;99.90;;;;;;5033994;28;20403;-78
2022/04/27 05:09:57;;;;;;;10.70;7.30;;;8.20;99.90;;;;;;5033817;28;20442;-80
2022/04/27 05:12:23;;;;;;;10.83;8.13;;;8.10;99.90;;;;;;5032012;28;20469;-78
2022/04/27 05:14:49;;;;;;;10.97;8.23;;;8.20;99.90;;;;;;5033737;28;20808;-78
2022/04/27 05:17:15;;;;;;;11.03;7.50;;;8.10;99.90;;;;;;5033301;28;20446;-78
2022/04/27 05:19:41;;;;;;;11.93;8.23;;;8.10;99.90;;;;;;5033418;28;20467;-78
2022/04/27 05:22:06;;;;;;;10.80;7.33;;;8.20;99.90;;;;;;5033336;28;20177;-78
2022/04/27 05:24:32;;;;;;;10.90;7.30;;;8.10;99.90;;;;;;5032265;28;20192;-78
2022/04/27 05:26:57;;;;;;;11.83;8.27;;;8.10;99.90;;;;;;5034673;28;20187;-80
2022/04/27 05:32:08;;;;;;;10.70;7.37;;;8.20;99.90;;;;;;5038022;28;20238;-80
2022/04/27 05:34:34;;;;;;;15.53;8.43;;;8.20;99.90;;;;;;5036295;28;20423;-81
2022/04/27 05:37:00;;;;;;;11.07;7.87;;;8.20;99.90;;;;;;5038005;28;20460;-80
2022/04/27 05:39:26;;;;;;;13.07;7.60;;;8.20;99.90;;;;;;5036453;28;20226;-79
2022/04/27 05:41:52;;;;;;;10.90;7.60;;;8.20;99.90;;;;;;5038217;28;20423;-79
2022/04/27 05:44:19;;;;;;;12.77;8.27;;;8.20;99.90;;;;;;5037488;28;20176;-79
2022/04/27 05:46:45;;;;;;;11.90;7.73;;;8.30;99.90;;;;;;5037415;28;20423;-80
2022/04/27 05:49:14;;;;;;;10.37;7.47;;;8.30;99.90;;;;;;5038069;28;20438;-79
2022/04/27 05:51:39;;;;;;;12.60;8.07;;;8.50;99.90;;;;;;5037920;28;20208;-79
2022/04/27 05:54:05;;;;;;;12.50;7.80;;;8.50;99.90;;;;;;5037219;28;20902;-79
2022/04/27 05:56:31;;;;;;;13.93;8.13;;;8.70;99.90;;;;;;5037459;28;20183;-80
2022/04/27 05:58:57;;;;;;;12.10;7.70;;;8.80;99.90;;;;;;5037070;28;20230;-80
2022/04/27 06:01:23;;;;;;;12.03;7.53;;;8.80;99.90;;;;;;5036506;28;20563;-80
2022/04/27 06:03:49;;;;;;;12.97;9.30;;;8.80;99.90;;;;;;5037681;28;20261;-80
2022/04/27 06:06:15;;;;;;;11.67;7.67;;;8.80;99.90;;;;;;5039260;28;20430;-80
2022/04/27 06:08:41;;;;;;;12.60;8.80;;;8.90;99.90;;;;;;5040540;28;20442;-79
2022/04/27 06:11:06;;;;;;;13.63;9.10;;;9.00;99.90;;;;;;5040412;28;20208;-80
2022/04/27 06:13:32;;;;;;;12.57;7.73;;;9.10;99.90;;;;;;5040594;28;20517;-79
2022/04/27 06:15:58;;;;;;;13.67;8.63;;;9.30;99.90;;;;;;5038931;28;20176;-78
2022/04/27 06:18:23;;;;;;;11.77;8.00;;;9.40;99.90;;;;;;5036471;28;20223;-79
2022/04/27 06:20:49;;;;;;;11.47;7.70;;;9.50;99.90;;;;;;5036277;28;20191;-78
2022/04/27 06:23:14;;;;;;;10.27;7.10;;;9.50;99.90;;;;;;5034985;28;20180;-79
2022/04/27 06:25:41;;;;;;;11.43;7.83;;;9.60;99.90;;;;;;5037476;28;20612;-79
2022/04/27 06:28:07;;;;;;;10.90;7.70;;;9.70;99.90;;;;;;5035989;28;20188;-79
2022/04/27 06:30:35;;;;;;;11.47;8.20;;;9.70;99.90;;;;;;5035832;28;20412;-79
2022/04/27 06:33:01;;;;;;;12.20;8.40;;;9.70;99.90;;;;;;5035966;28;20407;-79
2022/04/27 06:35:27;;;;;;;11.70;7.87;;;9.80;99.90;;;;;;5034505;28;20422;-79
2022/04/27 06:37:52;;;;;;;12.90;6.87;;;9.80;99.90;;;;;;5036881;28;20425;-79
2022/04/27 06:40:18;;;;;;;13.53;8.27;;;9.90;99.90;;;;;;5040344;28;20686;-79
2022/04/27 06:42:44;;;;;;;10.50;7.73;;;9.90;99.90;;;;;;5039291;28;20254;-79
2022/04/27 06:45:11;;;;;;;15.43;7.83;;;9.90;99.90;;;;;;5039056;28;20184;-80
2022/04/27 06:47:36;;;;;;;11.63;8.47;;;10.00;99.90;;;;;;5041158;28;20468;-81
2022/04/27 06:50:02;;;;;;;11.43;7.50;;;10.10;99.90;;;;;;5040616;28;20446;-80
2022/04/27 06:52:28;;;;;;;10.67;7.63;;;10.20;99.90;;;;;;5038090;28;20210;-79
2022/04/27 06:54:53;;;;;;;16.03;8.30;;;10.20;99.90;;;;;;5038837;28;21088;-79
2022/04/27 06:57:19;;;;;;;9.93;7.43;;;10.30;99.90;;;;;;5038348;28;20231;-80
2022/04/27 06:59:44;;;;;;;10.63;7.63;;;10.40;99.90;;;;;;5037240;28;20241;-80
2022/04/27 07:02:13;;;;;;;11.37;8.07;;;10.60;99.90;;;;;;5038375;28;20184;-79
2022/04/27 07:04:40;;;;;;;10.40;8.23;;;10.80;99.90;;;;;;5036811;28;20571;-80
2022/04/27 07:07:07;;;;;;;10.20;7.83;;;10.80;99.90;;;;;;5038201;28;20413;-80
2022/04/27 07:09:33;;;;;;;10.60;7.57;;;11.00;99.90;;;;;;5037640;28;20460;-79
2022/04/27 07:11:59;;;;;;;10.27;7.53;;;11.20;99.90;;;;;;5037517;28;20872;-80
2022/04/27 07:14:25;;;;;;;10.80;8.20;;;11.40;99.90;;;;;;5037997;28;20176;-80
2022/04/27 07:16:50;;;;;;;12.57;8.23;;;11.50;99.90;;;;;;5037099;28;20658;-80
2022/04/27 07:19:17;;;;;;;10.43;8.00;;;11.60;99.90;;;;;;5038321;28;20196;-80
2022/04/27 07:21:43;;;;;;;10.17;7.50;;;11.70;99.90;;;;;;5035742;28;20712;-79
2022/04/27 07:24:09;;;;;;;12.37;7.33;;;11.80;99.90;;;;;;5038326;28;20430;-80
2022/04/27 07:26:34;;;;;;;8.73;6.80;;;11.90;99.90;;;;;;5037995;28;20415;-80
2022/04/27 07:29:00;;;;;;;11.50;7.50;;;12.10;99.90;;;;;;5037396;28;20201;-79
2022/04/27 07:31:26;;;;;;;11.27;7.50;;;12.20;99.90;;;;;;5035396;28;20200;-81
2022/04/27 07:33:52;;;;;;;10.53;7.10;;;12.40;99.90;;;;;;5037558;28;20190;-80
2022/04/27 07:36:18;;;;;;;14.60;8.17;;;12.50;99.90;;;;;;5036978;28;20501;-79
2022/04/27 07:38:44;;;;;;;8.27;6.47;;;12.70;99.90;;;;;;5033819;28;20212;-83
2022/04/27 07:41:10;;;;;;;13.13;10.77;;;12.70;99.90;;;;;;5050396;28;20203;-83
2022/04/27 07:43:36;;;;;;;11.27;7.50;;;12.80;99.90;;;;;;5033993;28;20802;-82
2022/04/27 07:46:05;;;;;;;11.63;7.43;;;12.90;99.90;;;;;;5019403;28;20495;-81
2022/04/27 07:48:32;;;;;;;9.60;7.90;;;13.00;99.90;;;;;;5033493;28;20312;-81
2022/04/27 07:51:02;;;;;;;10.03;7.20;;;13.20;99.90;;;;;;5017994;28;20470;-82
2022/04/27 07:53:29;;;;;;;9.13;5.90;;;13.20;99.90;;;;;;5033223;28;20478;-82
2022/04/27 07:55:55;;;;;;;10.57;6.27;;;13.40;99.90;;;;;;5019216;28;20791;-81
2022/04/27 07:58:21;;;;;;;7.87;5.27;;;13.40;99.90;;;;;;5017331;28;20439;-81
2022/04/27 08:00:47;;;;;;;8.30;5.40;;;13.60;99.90;;;;;;5032217;28;20962;-81
2022/04/27 08:03:13;;;;;;;9.20;5.83;;;13.70;99.90;;;;;;5043988;28;20651;-81
2022/04/27 08:05:39;;;;;;;8.13;6.10;;;13.70;99.90;;;;;;5032001;28;20180;-81
2022/04/27 08:08:07;;;;;;;7.97;5.70;;;13.90;99.90;;;;;;5032668;28;20207;-79
2022/04/27 08:10:33;;;;;;;9.13;5.60;;;14.10;99.90;;;;;;5033921;28;20416;-79
2022/04/27 08:12:58;;;;;;;7.33;5.10;;;14.20;99.90;;;;;;5034816;28;20488;-79
2022/04/27 08:15:25;;;;;;;7.47;5.37;;;14.60;99.90;;;;;;5034386;28;20180;-79
2022/04/27 08:18:02;;;;;;;7.97;6.17;;;15.50;99.90;;;;;;5033787;28;20264;-81
2022/04/27 08:23:23;;;;;;;7.63;4.87;;;19.20;99.90;;;;;;5037592;28;20192;-80
2022/04/27 08:25:50;;;;;;;7.10;5.20;;;19.40;99.90;;;;;;5036131;28;20417;-80
2022/04/27 08:28:17;;;;;;;7.77;5.20;;;20.40;99.90;;;;;;5033062;28;20475;-80
2022/04/27 08:30:45;;;;;;;6.20;4.80;;;22.10;99.90;;;;;;5034732;28;20411;-81
2022/04/27 08:33:12;;;;;;;9.57;5.87;;;22.30;99.90;;;;;;5034734;28;20499;-80
2022/04/27 08:35:41;;;;;;;7.40;4.80;;;23.50;98.20;;;;;;5034914;28;20411;-81
2022/04/27 08:38:08;;;;;;;6.40;5.17;;;24.40;92.90;;;;;;5035185;28;20459;-81
2022/04/27 08:40:40;;;;;;;7.20;4.90;;;25.20;82.60;;;;;;5034427;28;20427;-81
2022/04/27 08:43:06;;;;;;;7.17;5.40;;;26.20;76.30;;;;;;5034193;28;20488;-80
2022/04/27 08:45:33;;;;;;;7.60;4.97;;;26.50;73.40;;;;;;5034134;28;20411;-80
2022/04/27 08:47:59;;;;;;;8.70;6.33;;;27.20;68.40;;;;;;5034500;28;20496;-81
2022/04/27 08:50:26;;;;;;;7.87;5.80;;;27.20;61.50;;;;;;5034254;28;20456;-80
2022/04/27 08:52:52;;;;;;;7.30;6.30;;;27.40;55.50;;;;;;5034203;28;20467;-82
2022/04/27 08:55:19;;;;;;;7.77;5.50;;;28.00;54.60;;;;;;5032188;28;20477;-81
2022/04/27 08:57:45;;;;;;;7.20;5.93;;;28.50;54.90;;;;;;5033634;28;20415;-80
2022/04/27 09:00:19;;;;;;;6.47;5.00;;;29.20;53.10;;;;;;5033523;28;20419;-81
2022/04/27 09:02:45;;;;;;;8.83;6.57;;;29.00;48.70;;;;;;5033984;28;20211;-80
2022/04/27 09:05:19;;;;;;;8.30;5.50;;;29.50;49.50;;;;;;5033843;28;20775;-80
2022/04/27 09:07:51;;;;;;;7.37;5.70;;;29.60;48.00;;;;;;5033551;28;20458;-81
2022/04/27 09:10:22;;;;;;;11.13;6.00;;;30.10;46.20;;;;;;5032995;28;20442;-81
2022/04/27 09:12:55;;;;;;;5.60;4.70;;;30.80;44.50;;;;;;5031731;28;20451;-81
2022/04/27 09:15:25;;;;;;;7.93;5.93;;;31.50;46.80;;;;;;5031630;28;20427;-81
2022/04/27 09:20:46;;;;;;;7.40;5.57;;;32.20;41.10;;;;;;5032766;28;20838;-81
2022/04/27 09:23:29;;;;;;;7.23;5.27;;;32.70;41.70;;;;;;5033233;28;20415;-80
2022/04/27 09:25:59;;;;;;;6.70;6.00;;;33.40;40.00;;;;;;5031332;28;20419;-81
2022/04/27 09:28:29;;;;;;;5.90;4.90;;;33.90;39.40;;;;;;5032860;28;20438;-81
2022/04/27 09:30:56;;;;;;;6.13;4.80;;;34.40;38.60;;;;;;5032561;28;20441;-81
2022/04/27 09:33:38;;;;;;;5.70;5.10;;;34.70;39.10;;;;;;5031923;28;21002;-81
2022/04/27 09:36:23;;;;;;;7.33;5.10;;;35.40;36.70;;;;;;5032595;28;20504;-81
2022/04/27 09:38:50;;;;;;;5.57;4.97;;;36.10;36.50;;;;;;5066908;23;20501;-85
2022/04/27 09:41:34;;;;;;;8.53;5.13;;;36.30;33.50;;;;;;5025119;28;20478;-84
2022/04/27 09:44:00;;;;;;;6.97;4.93;;;36.30;31.60;;;;;;5050721;28;20422;-85
2022/04/27 09:46:26;;;;;;;5.90;4.80;;;36.20;33.00;;;;;;5034093;28;20414;-85
2022/04/27 09:49:11;;;;;;;6.40;5.47;;;36.50;31.80;;;;;;5032002;28;20203;-85
2022/04/27 09:51:47;;;;;;;8.80;5.50;;;36.50;31.00;;;;;;5030402;28;20660;-85
2022/04/27 09:54:18;;;;;;;5.10;4.60;;;36.60;31.00;;;;;;5031827;28;20491;-85
2022/04/27 09:56:49;;;;;;;6.30;4.70;;;36.90;31.60;;;;;;5030533;28;20420;-84
2022/04/27 09:59:15;;;;;;;6.53;5.13;;;36.90;29.90;;;;;;5030406;28;20438;-84
2022/04/27 10:01:42;;;;;;;5.50;4.87;;;36.00;29.60;;;;;;5030142;28;20458;-85
2022/04/27 10:04:10;;;;;;;6.37;4.90;;;36.00;29.70;;;;;;5031676;28;20440;-86
2022/04/27 10:06:58;;;;;;;5.97;4.80;;;36.20;30.20;;;;;;5030063;28;20805;-86
2022/04/27 10:10:18;;;;;;;5.73;5.10;;;35.60;29.90;;;;;;5030377;28;20439;-86
2022/04/27 10:12:44;;;;;;;5.13;4.33;;;34.20;30.20;;;;;;5042667;28;20427;-84
2022/04/27 10:15:10;;;;;;;7.40;5.27;;;35.20;30.60;;;;;;5031451;28;20511;-85
2022/04/27 10:17:35;;;;;;;5.47;4.70;;;36.00;30.40;;;;;;5023448;28;20512;-86
2022/04/27 10:20:21;;;;;;;6.27;4.40;;;36.00;29.60;;;;;;5027095;28;20216;-86
2022/04/27 10:22:46;;;;;;;8.40;4.90;;;36.90;30.40;;;;;;5009756;28;20212;-85
2022/04/27 10:25:13;;;;;;;6.63;4.70;;;34.40;29.00;;;;;;5007237;28;20437;-84
2022/04/27 10:27:40;;;;;;;7.83;5.30;;;35.60;31.40;;;;;;5007573;28;20247;-87
2022/04/27 10:30:11;;;;;;;5.50;4.87;;;36.00;29.40;;;;;;5018021;28;20807;-85
2022/04/27 10:32:40;;;;;;;6.83;5.47;;;36.50;28.90;;;;;;5009770;28;20466;-85
2022/04/27 10:35:16;;;;;;;6.40;5.17;;;36.30;28.70;;;;;;5026371;28;20431;-86
2022/04/27 10:37:58;;;;;;;5.73;5.13;;;36.30;28.40;;;;;;5026470;28;20804;-87
2022/04/27 10:40:33;;;;;;;8.17;4.83;;;35.10;28.60;;;;;;5011144;28;20463;-86
2022/04/27 10:43:09;;;;;;;5.50;4.67;;;34.90;29.80;;;;;;5011393;28;20459;-86
2022/04/27 10:45:43;;;;;;;5.50;4.83;;;34.00;30.00;;;;;;5026503;28;20416;-87
2022/04/27 10:48:17;;;;;;;6.70;5.57;;;33.70;31.50;;;;;;5009989;28;20420;-85
2022/04/27 10:51:03;;;;;;;6.73;5.20;;;33.20;30.00;;;;;;5027288;28;20412;-84
2022/04/27 10:53:42;;;;;;;8.13;4.90;;;33.00;29.90;;;;;;5014334;28;20424;-86
2022/04/27 10:56:37;;;;;;;6.80;5.37;;;33.50;30.60;;;;;;5014105;28;20411;-86
2022/04/27 10:59:03;;;;;;;7.40;5.20;;;32.30;29.70;;;;;;5008625;28;20474;-86
2022/04/27 11:01:31;;;;;;;6.87;5.17;;;30.80;30.30;;;;;;5013212;28;20451;-84
2022/04/27 11:04:01;;;;;;;6.57;5.87;;;30.10;32.50;;;;;;5015226;28;20491;-84
2022/04/27 11:06:30;;;;;;;6.17;5.30;;;29.80;35.50;;;;;;5013526;28;20456;-84
2022/04/27 11:09:01;;;;;;;7.17;5.00;;;29.70;35.20;;;;;;5015020;28;20489;-83
2022/04/27 11:11:53;;;;;;;7.20;6.37;;;30.10;34.30;;;;;;5029676;28;20792;-84
2022/04/27 11:14:21;;;;;;;6.20;5.60;;;30.00;33.70;;;;;;5013522;28;20491;-84
2022/04/27 11:16:48;;;;;;;5.43;4.93;;;29.90;33.70;;;;;;5014374;28;20416;-84
2022/04/27 11:19:14;;;;;;;6.20;5.30;;;30.30;34.40;;;;;;5014861;28;20455;-84
2022/04/27 11:21:40;;;;;;;6.10;5.07;;;30.80;35.70;;;;;;5013575;28;21026;-84
2022/04/27 11:24:07;;;;;;;6.33;5.73;;;32.00;32.70;;;;;;5030517;28;20726;-85
2022/04/27 11:26:44;;;;;;;8.63;5.70;;;32.50;32.40;;;;;;5015099;28;20417;-86
2022/04/27 11:29:11;;;;;;;5.77;5.17;;;33.90;32.30;;;;;;5014877;28;20431;-87
2022/04/27 11:31:37;;;;;;;6.60;5.50;;;34.80;30.70;;;;;;5016027;28;20419;-85
2022/04/27 11:34:24;;;;;;;7.50;6.00;;;35.00;29.10;;;;;;5014075;28;20515;-86
2022/04/27 11:36:51;;;;;;;6.80;5.80;;;35.20;28.90;;;;;;5014363;28;20412;-86
2022/04/27 11:39:24;;;;;;;6.97;5.83;;;34.40;28.40;;;;;;5012766;28;20462;-85
2022/04/27 11:41:59;;;;;;;5.57;4.97;;;33.60;29.40;;;;;;5013694;28;20496;-85
2022/04/27 11:44:25;;;;;;;5.87;5.30;;;33.10;30.80;;;;;;5012955;28;20427;-83
2022/04/27 11:46:51;;;;;;;6.93;5.77;;;31.70;30.30;;;;;;5012475;28;20424;-84
2022/04/27 11:49:17;;;;;;;9.00;6.47;;;32.30;31.70;;;;;;5013727;28;20657;-83
2022/04/27 11:51:49;;;;;;;6.33;5.33;;;32.20;29.80;;;;;;5014081;28;20462;-83
2022/04/27 11:54:27;;;;;;;6.57;5.90;;;31.40;31.50;;;;;;5014236;28;20177;-84
2022/04/27 11:56:57;;;;;;;6.70;5.27;;;30.60;33.40;;;;;;5013708;28;20484;-83
2022/04/27 11:59:24;;;;;;;7.37;5.90;;;30.20;35.00;;;;;;5029141;28;20473;-83
2022/04/27 12:01:53;;;;;;;8.80;6.27;;;30.40;32.40;;;;;;5011648;28;20459;-83
2022/04/27 12:04:19;;;;;;;7.93;7.00;;;32.00;33.80;;;;;;5014000;28;20782;-84
2022/04/27 12:06:46;;;;;;;7.33;6.17;;;32.20;31.30;;;;;;5013479;28;20423;-83
2022/04/27 12:09:17;;;;;;;7.87;5.53;;;32.60;31.00;;;;;;5013807;28;20485;-83
2022/04/27 12:11:44;;;;;;;7.17;5.70;;;33.60;32.10;;;;;;5013341;28;20818;-83
2022/04/27 12:14:10;;;;;;;7.97;6.80;;;33.60;31.50;;;;;;5011333;28;20471;-84
2022/04/27 12:16:39;;;;;;;8.50;5.93;;;33.30;30.00;;;;;;4995413;28;20424;-83
2022/04/27 12:19:06;;;;;;;7.80;6.60;;;32.40;31.60;;;;;;4994687;28;20444;-84
2022/04/27 12:21:32;;;;;;;10.27;6.70;;;32.30;30.80;;;;;;4992887;28;20464;-83
2022/04/27 12:23:58;;;;;;;7.40;6.67;;;33.60;31.80;;;;;;4993969;28;20421;-84
2022/04/27 12:26:24;;;;;;;8.07;6.80;;;35.10;29.80;;;;;;4995999;28;20479;-81
2022/04/27 12:28:50;;;;;;;9.37;6.43;;;35.30;28.60;;;;;;5011414;28;20204;-84
2022/04/27 12:31:19;;;;;;;8.10;6.70;;;35.60;28.40;;;;;;4994233;28;20508;-83
2022/04/27 12:33:50;;;;;;;8.00;6.40;;;35.70;29.00;;;;;;4994549;28;20251;-84
2022/04/27 12:39:23;;;;;;;8.23;7.00;;;35.90;29.70;;;;;;4995035;28;20455;-82
2022/04/27 12:41:50;;;;;;;8.60;7.00;;;35.10;28.20;;;;;;4994196;28;20512;-83
2022/04/27 12:44:24;;;;;;;7.20;6.50;;;34.90;30.00;;;;;;4992875;28;20424;-83
2022/04/27 12:47:04;;;;;;;7.60;6.80;;;34.90;28.40;;;;;;5009041;28;20499;-83
2022/04/27 12:49:35;;;;;;;7.30;6.60;;;33.80;29.00;;;;;;4993568;28;20815;-84
2022/04/27 12:52:18;;;;;;;8.20;6.87;;;34.20;29.60;;;;;;5008028;28;20547;-84
2022/04/27 12:54:45;;;;;;;7.83;6.40;;;33.20;30.50;;;;;;5008740;28;20990;-83
2022/04/27 12:57:10;;;;;;;8.00;7.20;;;31.40;30.00;;;;;;5008589;28;20428;-83
2022/04/27 12:59:54;;;;;;;8.13;6.60;;;30.80;30.60;;;;;;4992112;28;20444;-83
2022/04/27 13:02:20;;;;;;;7.37;6.37;;;30.10;32.30;;;;;;4991614;28;20575;-83
2022/04/27 13:04:47;;;;;;;7.57;6.63;;;30.40;33.40;;;;;;4993638;28;20417;-83
2022/04/27 13:07:12;;;;;;;7.60;6.03;;;30.00;33.10;;;;;;4992127;28;20178;-84
2022/04/27 13:12:22;;;;;;;10.57;6.30;;;32.00;32.60;;;;;;4993086;28;20736;-84
2022/04/27 13:14:48;;;;;;;7.97;7.00;;;31.80;31.90;;;;;;4991253;28;20424;-83